map of PEE home
Great Circle Mapper logo
PEE - Airport
Location
City:  Perm, Permskiy, Russian Federation (Russia)
Near (Alt.):Bolshoye Savino
Name:Bolshoye Savino International Airport
ICAO:USPP
IATA:PEE

Details
Type:Airport (Aerodrome, Airfield)
Use:Public/Civil, Military, International (customs port of entry)
Latitude:57°54'52"N (57.914444)
Longitude:56°01'17"E (56.021389)
Elevation:404 ft (123 m)
Variation:15.43°E (WMM2015 magnetic declination)
0.10° annual change
Runways:1
Longest:10512 × 161 ft (3204 × 49 m), paved

Time
Time Zone:UTC+5 (DST+6)

Weather
METAR:USPP 060300Z VRB01MPS CAVOK 10/08 Q1017 R21/090060 NOSIG RMK QFE752
TAF:USPP 060159Z 0603/0703 36003MPS CAVOK
TEMPO 0603/0612 32008MPS= TAF UWKD 060155Z 0603/0703 06005MPS 9999 BKN020 TX20/0612Z TN07/0702Z
TEMPO 0603/0606 VRB01MPS 3000 BR SCT007
TEMPO 0609/0617 VRB12MPS 3000 -TSRA BKN010CB

Related Locations
Nearby:
Farthest:SCGC: 10688 mi / 17201 km
Base Antarctica [Unión Glaciar Airport], MA, CL

Find:

   beyond  
but within

Other Information
Maps:
NOTAMs:
Links:
Sources:

  
flag of Russian Federation (Russia)
flag of Permskiy
  

Airport Diagram

Airport diagram for PEE

Airport diagram PDF from AIP of the Russian Federation

Sectional Chart

Flight Planning
at skyvector.com

Satellite Image

Google Maps Satellite view

Yandex Maps Satellite view


 

Copyright © 2004-2016 Karl L. Swartz. All rights reserved.
The Great Circle Mapper name and logo are trademarks of the Great Circle Mapper.
All other trademarks mentioned herein belong to their respective owners.
Please see credits for attibutions and further copyright information.

  Follow gcmap on Facebook Follow gcmap on Twitter Follow gcmap on Google+ GCmap on LinkedIn

hCard Microformat

Geo Microformat